createdAt,value
2023-05-25T00:01:09.073Z,119.20
2023-05-25T00:03:36.318Z,82.38
2023-05-25T00:06:04.018Z,94.65
2023-05-25T00:08:31.205Z,107.00
2023-05-25T00:10:58.477Z,83.68
2023-05-25T00:13:25.969Z,106.22
2023-05-25T00:15:53.149Z,80.75
2023-05-25T00:18:20.124Z,88.57
2023-05-25T00:20:47.826Z,115.05
2023-05-25T00:23:15.273Z,105.93
2023-05-25T00:25:42.743Z,100.25
2023-05-25T00:28:11.910Z,101.63
2023-05-25T00:30:39.547Z,69.28
2023-05-25T00:33:07.133Z,70.63
2023-05-25T00:35:34.170Z,107.50
2023-05-25T00:38:01.211Z,83.68
2023-05-25T00:40:28.372Z,78.85
2023-05-25T00:42:57.781Z,84.10
2023-05-25T00:45:24.900Z,92.95
2023-05-25T00:47:53.242Z,98.82
2023-05-25T00:50:38.046Z,110.50
2023-05-25T00:53:12.199Z,107.88
2023-05-25T00:55:55.863Z,95.03
2023-05-25T00:58:27.431Z,118.28
2023-05-25T01:00:57.894Z,70.25
2023-05-25T01:03:29.732Z,109.10
2023-05-25T01:05:58.177Z,83.25
2023-05-25T01:08:25.875Z,94.60
2023-05-25T01:10:54.278Z,81.60
2023-05-25T01:13:21.843Z,76.65
2023-05-25T01:15:51.297Z,73.15
2023-05-25T01:18:18.471Z,66.03
2023-05-25T01:21:14.250Z,72.75
2023-05-25T01:23:51.457Z,72.00
2023-05-25T01:26:20.857Z,92.97
2023-05-25T01:28:52.910Z,110.88
2023-05-25T01:31:23.504Z,111.97
2023-05-25T01:33:52.076Z,101.78
2023-05-25T01:36:19.964Z,75.22
2023-05-25T01:38:47.096Z,78.18
2023-05-25T01:41:14.158Z,98.75
2023-05-25T01:43:43.078Z,156.60
2023-05-25T01:46:37.358Z,128.52
2023-05-25T01:49:35.559Z,84.10
2023-05-25T01:52:25.847Z,80.50
2023-05-25T01:55:05.181Z,102.57
2023-05-25T01:57:37.953Z,72.40
2023-05-25T02:00:06.798Z,71.07
2023-05-25T02:02:44.717Z,72.13
2023-05-25T02:05:12.185Z,72.97
2023-05-25T02:07:39.209Z,71.70
2023-05-25T02:10:07.083Z,72.72
2023-05-25T02:12:34.109Z,72.32
2023-05-25T02:15:01.307Z,72.28
2023-05-25T02:17:30.230Z,86.22
2023-05-25T02:19:57.539Z,83.22
2023-05-25T02:22:25.555Z,78.72
2023-05-25T02:24:52.522Z,87.65
2023-05-25T02:27:19.572Z,98.47
2023-05-25T02:29:48.398Z,91.20
2023-05-25T02:32:16.176Z,76.78
2023-05-25T02:34:43.509Z,77.57
2023-05-25T02:37:10.609Z,92.50
2023-05-25T02:39:38.367Z,96.32
2023-05-25T02:42:06.226Z,72.07
2023-05-25T02:44:33.305Z,75.63
2023-05-25T02:47:00.522Z,93.60
2023-05-25T02:49:27.603Z,102.60
2023-05-25T02:51:54.625Z,89.45
2023-05-25T02:54:21.697Z,87.82
2023-05-25T02:56:49.008Z,78.78
2023-05-25T02:59:17.872Z,85.90
2023-05-25T03:01:46.353Z,79.75
2023-05-25T03:04:13.811Z,79.22
2023-05-25T03:06:41.292Z,72.28
2023-05-25T03:09:13.284Z,71.65
2023-05-25T03:11:41.062Z,79.05
2023-05-25T03:14:11.486Z,102.85
2023-05-25T03:16:40.051Z,99.25
2023-05-25T03:19:08.454Z,72.13
2023-05-25T03:21:38.270Z,89.00
2023-05-25T03:24:05.804Z,99.88
2023-05-25T03:26:34.011Z,87.75
2023-05-25T03:29:02.976Z,97.90
2023-05-25T03:31:30.106Z,95.82
2023-05-25T03:33:58.092Z,86.53
2023-05-25T03:36:28.029Z,97.05
2023-05-25T03:38:55.121Z,89.40
2023-05-25T03:41:22.380Z,108.57
2023-05-25T03:43:49.877Z,93.57
2023-05-25T03:46:17.087Z,90.45
2023-05-25T03:48:44.397Z,90.13
2023-05-25T03:51:11.484Z,97.70
2023-05-25T03:53:39.101Z,95.05
2023-05-25T03:56:08.143Z,77.13
2023-05-25T03:58:37.605Z,73.88
2023-05-25T04:01:05.441Z,86.78
2023-05-25T04:03:33.173Z,95.75
2023-05-25T04:06:00.718Z,87.13
2023-05-25T04:08:29.376Z,87.72
2023-05-25T04:10:58.075Z,102.70
2023-05-25T04:13:25.167Z,102.60
2023-05-25T04:15:52.911Z,94.80
2023-05-25T04:18:23.250Z,75.25
2023-05-25T04:20:50.429Z,138.32
2023-05-25T04:23:21.380Z,133.25
2023-05-25T04:25:51.283Z,131.75
2023-05-25T04:28:19.840Z,132.68
2023-05-25T04:31:13.613Z,114.60
2023-05-25T04:33:51.343Z,94.03
2023-05-25T04:36:44.833Z,94.57
2023-05-25T04:39:14.429Z,76.10
2023-05-25T04:41:49.474Z,102.18
2023-05-25T04:44:16.568Z,96.22
2023-05-25T04:46:48.131Z,110.97
2023-05-25T04:49:21.527Z,74.90
2023-05-25T04:51:48.629Z,83.00
2023-05-25T04:54:15.918Z,74.45
2023-05-25T04:56:43.987Z,77.30
2023-05-25T04:59:11.384Z,73.00
2023-05-25T05:01:42.136Z,69.47
2023-05-25T05:04:12.348Z,73.30
2023-05-25T05:06:39.876Z,72.03
2023-05-25T05:09:08.876Z,73.03
2023-05-25T05:11:35.926Z,72.45
2023-05-25T05:14:04.317Z,72.18
2023-05-25T05:16:35.074Z,73.63
2023-05-25T05:19:02.556Z,73.07
2023-05-25T05:21:30.131Z,73.80
2023-05-25T05:23:57.308Z,73.13
2023-05-25T05:26:24.558Z,73.57
2023-05-25T05:28:52.714Z,72.68
2023-05-25T05:31:21.499Z,73.40
2023-05-25T05:33:48.552Z,73.68
2023-05-25T05:36:16.833Z,73.25
2023-05-25T05:38:46.767Z,72.15
2023-05-25T05:41:14.500Z,73.18
2023-05-25T05:43:46.695Z,73.35
2023-05-25T05:46:13.999Z,71.93
2023-05-25T05:48:41.925Z,73.20
2023-05-25T05:51:10.222Z,72.00
2023-05-25T05:53:37.868Z,72.90
2023-05-25T05:56:05.887Z,71.53
2023-05-25T05:58:33.142Z,72.53
2023-05-25T06:01:01.521Z,73.43
2023-05-25T06:03:29.012Z,73.82
2023-05-25T06:05:56.499Z,74.32
2023-05-25T06:08:23.888Z,70.88
2023-05-25T06:10:51.340Z,73.65
2023-05-25T06:13:18.433Z,73.35
2023-05-25T06:15:45.774Z,74.32
2023-05-25T06:18:18.041Z,72.97
2023-05-25T06:20:45.202Z,74.03
2023-05-25T06:23:14.101Z,68.80
2023-05-25T06:25:41.518Z,107.05
2023-05-25T06:28:08.778Z,76.88
2023-05-25T06:30:35.981Z,77.28
2023-05-25T06:33:04.618Z,71.00
2023-05-25T06:35:31.710Z,79.75
2023-05-25T06:37:58.827Z,100.63
2023-05-25T06:40:26.079Z,71.43
2023-05-25T06:42:53.247Z,99.70
2023-05-25T06:45:40.844Z,72.95
2023-05-25T06:48:08.057Z,81.50
2023-05-25T06:50:35.643Z,71.53
2023-05-25T06:53:02.696Z,68.78
2023-05-25T06:55:29.715Z,71.55
2023-05-25T06:57:56.905Z,98.72
2023-05-25T07:00:24.136Z,80.68
2023-05-25T07:02:51.436Z,86.63
2023-05-25T07:05:18.534Z,79.28
2023-05-25T07:07:45.724Z,76.15
2023-05-25T07:10:12.863Z,76.80
2023-05-25T07:12:39.935Z,79.03
2023-05-25T07:15:07.907Z,75.22
2023-05-25T07:17:36.503Z,75.78
2023-05-25T07:20:06.365Z,81.63
2023-05-25T07:22:33.452Z,75.82
2023-05-25T07:25:00.546Z,87.78
2023-05-25T07:27:27.909Z,78.05
2023-05-25T07:29:54.951Z,85.53
2023-05-25T07:32:22.463Z,78.40
2023-05-25T07:34:49.500Z,90.95
2023-05-25T07:37:16.516Z,84.22
2023-05-25T07:39:43.566Z,77.28
2023-05-25T07:42:11.415Z,84.95
2023-05-25T07:44:38.509Z,79.75
2023-05-25T07:47:06.910Z,77.70
2023-05-25T07:49:34.297Z,82.97
2023-05-25T07:52:03.621Z,76.25
2023-05-25T07:54:30.696Z,91.90
2023-05-25T07:56:57.766Z,74.45
2023-05-25T07:59:27.436Z,78.97
2023-05-25T08:01:54.574Z,92.97
2023-05-25T08:04:21.669Z,78.43
2023-05-25T08:06:48.850Z,77.25
2023-05-25T08:09:15.949Z,90.75
2023-05-25T08:11:45.157Z,80.15
2023-05-25T08:14:12.131Z,76.97
2023-05-25T08:16:39.223Z,87.70
2023-05-25T08:19:06.389Z,77.43
2023-05-25T08:21:35.211Z,83.93
2023-05-25T08:24:04.266Z,77.65
2023-05-25T08:26:45.291Z,76.05
2023-05-25T08:29:19.316Z,75.63
2023-05-25T08:31:49.584Z,75.72
2023-05-25T08:34:17.171Z,82.18
2023-05-25T08:36:44.890Z,73.50
2023-05-25T08:39:12.208Z,75.05
2023-05-25T08:41:44.631Z,73.00
2023-05-25T08:44:14.375Z,83.97
2023-05-25T08:46:41.772Z,81.05
2023-05-25T08:49:14.777Z,77.30
2023-05-25T08:51:54.905Z,75.18
2023-05-25T08:54:30.855Z,73.00
2023-05-25T08:57:17.550Z,70.45
2023-05-25T09:00:00.378Z,71.07
2023-05-25T09:02:38.043Z,75.40
2023-05-25T09:05:05.891Z,100.88
2023-05-25T09:07:33.715Z,86.30
2023-05-25T09:10:02.052Z,75.20
2023-05-25T09:12:31.236Z,88.93
2023-05-25T09:14:59.492Z,82.20
2023-05-25T09:17:27.179Z,75.18
2023-05-25T09:19:54.902Z,75.78
2023-05-25T09:22:22.477Z,83.72
2023-05-25T09:24:49.753Z,84.90
2023-05-25T09:27:19.327Z,91.22
2023-05-25T09:29:51.065Z,78.22
2023-05-25T09:32:19.166Z,72.07
2023-05-25T09:34:47.526Z,87.40
2023-05-25T09:37:17.462Z,76.05
2023-05-25T09:39:45.351Z,90.18
2023-05-25T09:42:12.622Z,72.57
2023-05-25T09:44:40.422Z,76.25
2023-05-25T09:47:07.636Z,91.85
2023-05-25T09:49:35.505Z,76.75
2023-05-25T09:52:02.874Z,85.05
2023-05-25T09:54:29.940Z,77.53
2023-05-25T09:56:57.025Z,86.35
2023-05-25T09:59:24.094Z,77.88
2023-05-25T10:01:54.372Z,78.82
2023-05-25T10:04:21.585Z,98.15
2023-05-25T10:06:52.327Z,93.80
2023-05-25T10:09:20.821Z,75.90
2023-05-25T10:11:51.723Z,68.13
2023-05-25T10:14:29.091Z,81.80
2023-05-25T10:16:59.855Z,72.78
2023-05-25T10:19:48.638Z,73.10
2023-05-25T10:22:41.232Z,73.85
2023-05-25T10:25:30.481Z,74.82
2023-05-25T10:28:07.803Z,77.40
2023-05-25T10:30:37.106Z,79.47
2023-05-25T10:33:05.179Z,68.57
2023-05-25T10:35:42.418Z,68.20
2023-05-25T10:38:19.735Z,67.55
2023-05-25T10:40:53.276Z,68.70
2023-05-25T10:43:22.732Z,63.50
2023-05-25T10:45:50.016Z,63.38
2023-05-25T10:48:17.067Z,59.45
2023-05-25T10:50:50.840Z,62.50
2023-05-25T10:53:21.047Z,63.78
2023-05-25T10:55:53.978Z,55.45
2023-05-25T10:58:24.082Z,54.10
2023-05-25T11:01:08.732Z,54.50
2023-05-25T11:03:45.540Z,48.05
2023-05-25T11:06:17.574Z,45.10
2023-05-25T11:08:51.998Z,41.10
2023-05-25T11:11:19.298Z,41.63
2023-05-25T11:13:48.065Z,38.63
2023-05-25T11:16:27.747Z,40.13
2023-05-25T11:19:00.942Z,39.38
2023-05-25T11:21:27.961Z,39.80
2023-05-25T11:24:04.379Z,37.45
2023-05-25T11:26:34.276Z,36.92
2023-05-25T11:29:13.482Z,33.15
2023-05-25T11:31:43.349Z,32.30
2023-05-25T11:34:12.425Z,37.67
2023-05-25T11:36:39.763Z,27.90
2023-05-25T11:39:17.086Z,27.83
2023-05-25T11:41:56.072Z,23.23
2023-05-25T11:44:36.304Z,31.63
2023-05-25T11:47:13.325Z,26.50
2023-05-25T11:49:42.407Z,18.05
2023-05-25T11:52:10.541Z,20.00
2023-05-25T11:54:41.170Z,19.70
2023-05-25T11:57:20.581Z,20.80
2023-05-25T11:59:57.379Z,15.70
2023-05-25T12:02:24.822Z,14.45
2023-05-25T12:05:02.379Z,20.98
2023-05-25T12:07:30.951Z,13.90
2023-05-25T12:10:09.803Z,14.20
2023-05-25T12:12:48.051Z,12.55
2023-05-25T12:15:23.537Z,13.60
2023-05-25T12:17:53.584Z,11.70
2023-05-25T12:20:21.444Z,13.52
2023-05-25T12:22:48.806Z,13.18
2023-05-25T12:25:21.532Z,12.93
2023-05-25T12:27:48.778Z,17.67
2023-05-25T12:30:15.847Z,20.63
2023-05-25T12:33:13.644Z,13.85
2023-05-25T12:35:49.027Z,11.75
2023-05-25T12:38:19.155Z,12.05
2023-05-25T12:40:46.386Z,11.30
2023-05-25T12:43:15.373Z,14.02
2023-05-25T12:45:43.710Z,12.07
2023-05-25T12:48:10.951Z,11.15
2023-05-25T12:50:38.247Z,12.20
2023-05-25T12:53:05.596Z,11.00
2023-05-25T12:55:35.582Z,11.57
2023-05-25T12:58:06.023Z,12.50
2023-05-25T13:00:34.963Z,12.10
2023-05-25T13:03:03.396Z,11.95
2023-05-25T13:05:34.080Z,10.32
2023-05-25T13:08:02.110Z,11.30
2023-05-25T13:10:32.870Z,11.68
2023-05-25T13:13:01.055Z,11.43
2023-05-25T13:15:28.800Z,12.02
2023-05-25T13:17:58.501Z,12.20
2023-05-25T13:20:30.160Z,12.05
2023-05-25T13:22:57.426Z,12.00
2023-05-25T13:25:27.470Z,11.20
2023-05-25T13:27:56.891Z,10.55
2023-05-25T13:30:24.081Z,11.15
2023-05-25T13:32:52.914Z,11.18
2023-05-25T13:35:37.638Z,11.00
2023-05-25T13:38:05.244Z,11.15
2023-05-25T13:40:32.297Z,11.45
2023-05-25T13:42:59.426Z,10.85
2023-05-25T13:45:26.506Z,9.95
2023-05-25T13:47:53.605Z,11.35
2023-05-25T13:50:20.728Z,12.55
2023-05-25T13:52:49.111Z,13.77
2023-05-25T13:55:16.115Z,10.90
2023-05-25T13:57:43.188Z,12.02
2023-05-25T14:00:10.861Z,11.77
2023-05-25T14:02:38.098Z,11.82
2023-05-25T14:05:05.881Z,17.45
2023-05-25T14:07:33.181Z,11.65
2023-05-25T14:10:00.643Z,12.18
2023-05-25T14:12:27.982Z,10.52
2023-05-25T14:14:55.009Z,11.25
2023-05-25T14:17:22.029Z,11.32
2023-05-25T14:19:49.123Z,12.32
2023-05-25T14:22:16.073Z,11.77
2023-05-25T14:24:43.127Z,12.75
2023-05-25T14:27:10.128Z,11.35
2023-05-25T14:29:37.288Z,11.57
2023-05-25T14:32:04.860Z,11.40
2023-05-25T14:34:31.898Z,11.00
2023-05-25T14:36:58.873Z,11.23
2023-05-25T14:39:26.604Z,11.45
2023-05-25T14:41:53.746Z,11.32
2023-05-25T14:44:20.912Z,16.60
2023-05-25T14:46:47.945Z,14.02
2023-05-25T14:49:16.890Z,13.27
2023-05-25T14:51:43.921Z,11.05
2023-05-25T14:54:13.482Z,11.45
2023-05-25T14:56:40.689Z,9.75
2023-05-25T14:59:08.040Z,11.25
2023-05-25T15:01:35.742Z,11.18
2023-05-25T15:04:03.488Z,16.50
2023-05-25T15:06:32.086Z,15.18
2023-05-25T15:08:59.112Z,12.82
2023-05-25T15:11:26.917Z,14.25
2023-05-25T15:13:53.999Z,14.07
2023-05-25T15:16:21.654Z,14.05
2023-05-25T15:18:48.802Z,11.32
2023-05-25T15:21:15.804Z,11.82
2023-05-25T15:23:42.846Z,12.48
2023-05-25T15:26:11.621Z,12.80
2023-05-25T15:28:38.732Z,11.70
2023-05-25T15:31:05.822Z,10.50
2023-05-25T15:33:48.511Z,11.27
2023-05-25T15:36:17.137Z,10.35
2023-05-25T15:38:45.760Z,10.52
2023-05-25T15:41:16.612Z,10.00
2023-05-25T15:43:58.675Z,10.93
2023-05-25T15:46:26.053Z,10.60
2023-05-25T15:48:54.059Z,9.10
2023-05-25T15:51:21.471Z,10.23
2023-05-25T15:53:48.725Z,13.02
2023-05-25T15:56:15.972Z,33.20
2023-05-25T15:58:47.060Z,11.55
2023-05-25T16:01:14.446Z,13.25
2023-05-25T16:03:43.264Z,32.25
2023-05-25T16:06:11.167Z,29.20
2023-05-25T16:08:38.302Z,21.02
2023-05-25T16:11:05.592Z,18.63
2023-05-25T16:13:32.645Z,21.33
2023-05-25T16:15:59.750Z,54.85
2023-05-25T16:18:26.865Z,20.83
2023-05-25T16:20:57.577Z,26.50
2023-05-25T16:23:25.141Z,27.13
2023-05-25T16:25:52.353Z,21.55
2023-05-25T16:28:19.389Z,29.02
2023-05-25T16:30:46.345Z,40.33
2023-05-25T16:33:13.510Z,33.85
2023-05-25T16:35:40.518Z,36.53
2023-05-25T16:38:07.551Z,20.42
2023-05-25T16:40:34.587Z,23.08
2023-05-25T16:43:01.700Z,27.10
2023-05-25T16:45:28.801Z,21.33
2023-05-25T16:47:56.004Z,34.33
2023-05-25T16:50:23.120Z,23.02
2023-05-25T16:52:50.148Z,57.50
2023-05-25T16:55:17.206Z,103.07
2023-05-25T16:57:44.212Z,74.75
2023-05-25T17:00:12.137Z,28.77
2023-05-25T17:02:39.429Z,45.53
2023-05-25T17:05:07.245Z,29.13
2023-05-25T17:07:36.169Z,31.77
2023-05-25T17:10:03.417Z,83.35
2023-05-25T17:12:30.500Z,33.88
2023-05-25T17:14:57.567Z,17.15
2023-05-25T17:17:28.096Z,22.23
2023-05-25T17:19:55.569Z,19.50
2023-05-25T17:22:22.773Z,19.30
2023-05-25T17:24:49.820Z,46.67
2023-05-25T17:27:17.244Z,40.38
2023-05-25T17:29:44.279Z,44.88
2023-05-25T17:32:11.424Z,37.10
2023-05-25T17:34:38.487Z,54.65
2023-05-25T17:37:05.822Z,20.65
2023-05-25T17:39:32.848Z,34.28
2023-05-25T17:41:59.924Z,73.28
2023-05-25T17:44:27.078Z,73.95
2023-05-25T17:46:54.085Z,73.55
2023-05-25T17:49:21.100Z,71.55
2023-05-25T17:51:48.043Z,85.07
2023-05-25T17:54:18.418Z,75.30
2023-05-25T17:56:46.484Z,185.80
2023-05-25T17:59:13.530Z,77.35
2023-05-25T18:01:41.788Z,83.88
2023-05-25T18:04:09.101Z,113.75
2023-05-25T18:06:37.083Z,74.50
2023-05-25T18:09:04.461Z,74.55
2023-05-25T18:11:33.533Z,72.10
2023-05-25T18:14:00.627Z,168.20
2023-05-25T18:16:27.737Z,72.72
2023-05-25T18:18:54.795Z,112.95
2023-05-25T18:21:21.808Z,73.20
2023-05-25T18:23:48.820Z,73.43
2023-05-25T18:26:15.966Z,139.32
2023-05-25T18:28:42.938Z,72.70
2023-05-25T18:31:09.990Z,149.95
2023-05-25T18:33:37.121Z,71.47
2023-05-25T18:36:04.369Z,73.80
2023-05-25T18:38:31.384Z,110.30
2023-05-25T18:40:58.435Z,73.75
2023-05-25T18:43:26.152Z,73.65
2023-05-25T18:45:53.319Z,74.25
2023-05-25T18:48:20.408Z,71.82
2023-05-25T18:50:47.431Z,71.72
2023-05-25T18:53:14.449Z,72.97
2023-05-25T18:55:41.508Z,71.82
2023-05-25T18:58:08.636Z,24.38
2023-05-25T19:00:35.740Z,21.50
2023-05-25T19:03:03.171Z,66.88
2023-05-25T19:05:30.268Z,64.72
2023-05-25T19:07:59.565Z,64.50
2023-05-25T19:10:27.675Z,63.42
2023-05-25T19:12:54.958Z,62.85
2023-05-25T19:15:22.333Z,60.15
2023-05-25T19:17:49.568Z,58.88
2023-05-25T19:20:17.051Z,56.70
2023-05-25T19:22:44.467Z,57.08
2023-05-25T19:25:11.884Z,19.05
2023-05-25T19:27:39.038Z,66.63
2023-05-25T19:30:07.054Z,37.30
2023-05-25T19:32:34.112Z,37.88
2023-05-25T19:35:01.338Z,43.13
2023-05-25T19:37:28.388Z,42.63
2023-05-25T19:39:55.421Z,32.80
2023-05-25T19:42:22.477Z,24.05
2023-05-25T19:44:49.591Z,33.33
2023-05-25T19:47:16.663Z,41.97
2023-05-25T19:49:43.673Z,23.75
2023-05-25T19:52:10.780Z,27.75
2023-05-25T19:54:38.490Z,31.50
2023-05-25T19:57:06.802Z,24.90
2023-05-25T19:59:33.882Z,24.67
2023-05-25T20:02:01.016Z,15.57
2023-05-25T20:04:28.043Z,19.38
2023-05-25T20:06:55.591Z,24.55
2023-05-25T20:09:30.486Z,40.55
2023-05-25T20:12:00.865Z,24.98
2023-05-25T20:14:27.913Z,37.10
2023-05-25T20:16:55.975Z,17.20
2023-05-25T20:19:23.344Z,37.20
2023-05-25T20:21:50.841Z,20.38
2023-05-25T20:24:18.117Z,18.55
2023-05-25T20:26:45.479Z,27.00
2023-05-25T20:29:12.564Z,26.42
2023-05-25T20:31:40.344Z,16.60
2023-05-25T20:34:07.621Z,69.50
2023-05-25T20:36:34.713Z,71.13
2023-05-25T20:39:03.255Z,108.53
2023-05-25T20:41:30.606Z,69.30
2023-05-25T20:43:57.952Z,69.07
2023-05-25T20:46:25.218Z,71.68
2023-05-25T20:48:53.422Z,71.90
2023-05-25T20:51:21.779Z,70.90
2023-05-25T20:53:48.934Z,73.05
2023-05-25T20:56:16.242Z,73.18
2023-05-25T20:58:43.523Z,71.45
2023-05-25T21:01:10.725Z,70.43
2023-05-25T21:03:37.945Z,70.80
2023-05-25T21:06:05.028Z,70.57
2023-05-25T21:08:33.163Z,69.15
2023-05-25T21:11:00.174Z,69.68
2023-05-25T21:13:27.252Z,69.90
2023-05-25T21:15:54.304Z,71.25
2023-05-25T21:18:21.520Z,70.22
2023-05-25T21:20:49.372Z,69.90
2023-05-25T21:23:16.303Z,70.13
2023-05-25T21:25:43.490Z,70.13
2023-05-25T21:28:10.706Z,70.90
2023-05-25T21:30:37.767Z,70.93
2023-05-25T21:33:04.822Z,70.25
2023-05-25T21:35:31.950Z,71.20
2023-05-25T21:37:59.027Z,70.18
2023-05-25T21:40:26.051Z,71.20
2023-05-25T21:42:53.430Z,70.38
2023-05-25T21:45:20.974Z,71.47
2023-05-25T21:47:48.188Z,71.38
2023-05-25T21:50:15.371Z,71.80
2023-05-25T21:52:42.623Z,71.32
2023-05-25T21:55:09.958Z,70.60
2023-05-25T21:57:37.041Z,70.38
2023-05-25T22:00:06.971Z,70.85
2023-05-25T22:02:40.206Z,68.80
2023-05-25T22:05:07.571Z,68.47
2023-05-25T22:07:34.598Z,69.10
2023-05-25T22:10:01.607Z,68.70
2023-05-25T22:12:28.622Z,68.72
2023-05-25T22:14:55.701Z,68.18
2023-05-25T22:17:22.806Z,67.78
2023-05-25T22:20:03.358Z,68.43
2023-05-25T22:22:34.162Z,66.13
2023-05-25T22:25:01.272Z,66.53
2023-05-25T22:27:28.414Z,65.85
2023-05-25T22:29:55.999Z,65.72
2023-05-25T22:32:23.293Z,67.00
2023-05-25T22:34:50.611Z,65.18
2023-05-25T22:37:17.816Z,65.95
2023-05-25T22:39:45.319Z,66.03
2023-05-25T22:42:12.425Z,64.40
2023-05-25T22:44:39.429Z,65.00
2023-05-25T22:47:07.021Z,66.50
2023-05-25T22:49:41.134Z,65.78
2023-05-25T22:52:10.476Z,65.20
2023-05-25T22:54:37.467Z,66.50
2023-05-25T22:57:04.565Z,66.53
2023-05-25T22:59:31.543Z,66.35
2023-05-25T23:01:58.586Z,66.85
2023-05-25T23:04:25.555Z,67.13
2023-05-25T23:06:52.509Z,66.32
2023-05-25T23:09:19.588Z,65.53
2023-05-25T23:11:46.539Z,66.72
2023-05-25T23:14:13.491Z,66.95
2023-05-25T23:16:41.492Z,67.00
2023-05-25T23:19:08.706Z,67.22
